Time;durP1;ratioP1;P1;durP2;ratioP2;P2;SDS_P1;SDS_P2;PMS_P1;PMS_P2;Temp;Humidity;BMP_temperature;BMP_pressure;BME280_temperature;BME280_humidity;BME280_pressure;Samples;Min_cycle;Max_cycle;Signal;HPM_P1;HPM_P2
2021/05/31 00:00:10;;;;;;;3.50;2.70;;;17.40;98.60;;;;;;4121475;28;20058;-83
2021/05/31 00:02:11;;;;;;;3.88;2.78;;;17.30;98.60;;;;;;4139664;28;20116;-83
2021/05/31 00:04:11;;;;;;;3.45;2.50;;;17.30;98.40;;;;;;4141727;28;20026;-83
2021/05/31 00:06:12;;;;;;;4.10;2.90;;;17.30;98.50;;;;;;4138230;28;20409;-83
2021/05/31 00:08:12;;;;;;;7.88;3.05;;;17.30;99.30;;;;;;4140354;28;20475;-83
2021/05/31 00:10:13;;;;;;;4.15;3.00;;;17.30;98.90;;;;;;4115572;28;20487;-83
2021/05/31 00:12:17;;;;;;;3.67;2.60;;;17.30;99.10;;;;;;4136014;28;20088;-83
2021/05/31 00:14:17;;;;;;;4.38;2.70;;;17.20;99.70;;;;;;4140856;28;20113;-83
2021/05/31 00:16:18;;;;;;;5.22;2.97;;;17.20;99.50;;;;;;4141538;28;20415;-83
2021/05/31 00:18:19;;;;;;;5.25;3.28;;;17.20;99.90;;;;;;4125010;28;20038;-83
2021/05/31 00:20:19;;;;;;;3.92;2.83;;;17.20;99.60;;;;;;4122380;28;20075;-83
2021/05/31 00:22:22;;;;;;;4.13;2.72;;;17.20;99.90;;;;;;4139167;28;20052;-83
2021/05/31 00:24:23;;;;;;;4.68;2.60;;;17.10;99.90;;;;;;4121777;28;20440;-83
2021/05/31 00:26:23;;;;;;;3.85;2.88;;;17.10;99.90;;;;;;4123388;28;20043;-83
2021/05/31 00:28:24;;;;;;;4.72;2.95;;;17.10;99.90;;;;;;4123595;28;20098;-83
2021/05/31 00:30:25;;;;;;;3.35;2.47;;;17.10;99.90;;;;;;4123484;28;20031;-83
2021/05/31 00:32:25;;;;;;;3.70;2.80;;;17.00;99.90;;;;;;4122882;28;20042;-83
2021/05/31 00:34:26;;;;;;;4.00;2.70;;;17.00;99.90;;;;;;4140108;28;20033;-83
2021/05/31 00:36:28;;;;;;;3.40;2.50;;;17.00;99.90;;;;;;4138280;28;20438;-83
2021/05/31 00:38:29;;;;;;;5.00;2.95;;;17.00;99.90;;;;;;4138273;28;20442;-83
2021/05/31 00:40:30;;;;;;;3.95;2.65;;;17.00;99.90;;;;;;4134564;28;20090;-83
2021/05/31 00:42:30;;;;;;;4.15;2.38;;;17.00;99.90;;;;;;4137146;28;20034;-83
2021/05/31 00:44:31;;;;;;;5.40;3.20;;;16.90;99.90;;;;;;4139925;28;20042;-83
2021/05/31 00:46:32;;;;;;;4.68;3.05;;;16.90;99.90;;;;;;4143658;28;20038;-83
2021/05/31 00:48:33;;;;;;;3.45;2.85;;;16.90;99.90;;;;;;4138205;28;20048;-83
2021/05/31 00:50:34;;;;;;;5.45;2.95;;;16.90;99.60;;;;;;4116293;28;20038;-83
2021/05/31 00:52:34;;;;;;;3.47;2.80;;;16.80;99.90;;;;;;4119043;28;20031;-84
2021/05/31 00:54:36;;;;;;;3.67;2.83;;;16.80;99.90;;;;;;4138302;28;20034;-83
2021/05/31 00:56:40;;;;;;;3.05;2.40;;;16.80;99.90;;;;;;4111881;28;20425;-83
2021/05/31 00:58:41;;;;;;;3.75;2.70;;;16.80;99.90;;;;;;4124458;28;20038;-83
2021/05/31 01:00:45;;;;;;;2.60;2.40;;;16.80;99.90;;;;;;4132276;28;20061;-83
2021/05/31 01:02:45;;;;;;;3.63;2.60;;;16.80;99.90;;;;;;4121591;28;20118;-83
2021/05/31 01:04:46;;;;;;;4.55;2.72;;;16.80;99.90;;;;;;4134575;28;20038;-83
2021/05/31 01:06:54;;;;;;;4.38;2.80;;;16.80;99.90;;;;;;4138282;28;20113;-83
2021/05/31 01:09:02;;;;;;;4.85;2.70;;;16.80;99.90;;;;;;4123676;28;20037;-83
2021/05/31 01:11:11;;;;;;;4.32;3.38;;;16.80;99.90;;;;;;4124968;28;20057;-83
2021/05/31 01:13:29;;;;;;;5.07;2.85;;;16.70;99.90;;;;;;4122058;28;20068;-83
2021/05/31 01:15:33;;;;;;;3.35;2.70;;;16.70;99.90;;;;;;4138109;28;20390;-83
2021/05/31 01:18:01;;;;;;;3.50;2.63;;;16.70;99.90;;;;;;4138505;28;20045;-83
2021/05/31 01:20:14;;;;;;;3.30;2.40;;;16.70;99.90;;;;;;4121305;28;20332;-83
2021/05/31 01:22:16;;;;;;;3.42;2.92;;;16.70;99.90;;;;;;4136736;28;20034;-83
2021/05/31 01:24:26;;;;;;;2.78;2.58;;;16.60;99.90;;;;;;4137083;28;20026;-83
2021/05/31 01:26:32;;;;;;;2.97;2.45;;;16.60;99.90;;;;;;4118311;28;20054;-83
2021/05/31 01:28:52;;;;;;;3.45;2.95;;;16.60;99.90;;;;;;4119229;28;20126;-83
2021/05/31 01:30:55;;;;;;;4.68;3.00;;;16.50;99.90;;;;;;4135136;28;20106;-83
2021/05/31 01:32:58;;;;;;;5.43;2.80;;;16.50;99.90;;;;;;4126652;28;20030;-84
2021/05/31 01:35:06;;;;;;;4.45;2.95;;;16.50;99.90;;;;;;4143111;28;20114;-83
2021/05/31 01:37:14;;;;;;;5.60;2.85;;;16.50;99.90;;;;;;4119005;28;20046;-83
2021/05/31 01:39:19;;;;;;;5.25;3.40;;;16.50;99.90;;;;;;4123602;28;20114;-84
2021/05/31 01:41:20;;;;;;;4.82;2.95;;;16.50;99.90;;;;;;4139014;28;20097;-84
2021/05/31 01:43:22;;;;;;;3.50;2.63;;;16.40;99.90;;;;;;4142179;28;20061;-84
2021/05/31 01:45:23;;;;;;;4.18;2.90;;;16.40;99.90;;;;;;4143212;28;20038;-84
2021/05/31 01:47:25;;;;;;;6.95;3.10;;;16.40;99.90;;;;;;4136852;28;20109;-83
2021/05/31 01:49:27;;;;;;;4.85;3.13;;;16.30;99.90;;;;;;4124372;28;20031;-83
2021/05/31 01:51:28;;;;;;;5.25;3.33;;;16.30;99.90;;;;;;4125797;28;20049;-83
2021/05/31 01:53:29;;;;;;;7.97;3.03;;;16.30;99.90;;;;;;4121953;28;20054;-83
2021/05/31 01:55:32;;;;;;;4.35;3.25;;;16.30;99.90;;;;;;4141377;28;20058;-83
2021/05/31 01:57:33;;;;;;;3.83;3.13;;;16.30;99.90;;;;;;4127005;28;20042;-83
2021/05/31 01:59:35;;;;;;;4.47;2.75;;;16.20;99.90;;;;;;4139704;28;20038;-83
2021/05/31 02:01:36;;;;;;;5.05;3.13;;;16.20;99.90;;;;;;4123664;28;20511;-83
2021/05/31 02:03:37;;;;;;;4.10;2.95;;;16.20;99.90;;;;;;4143748;28;20084;-84
2021/05/31 02:05:39;;;;;;;4.13;3.20;;;16.20;99.90;;;;;;4142094;28;20038;-83
2021/05/31 02:07:39;;;;;;;4.32;2.88;;;16.20;99.90;;;;;;4123418;28;20038;-83
2021/05/31 02:09:40;;;;;;;3.50;2.90;;;16.20;99.90;;;;;;4144610;28;20038;-83
2021/05/31 02:12:03;;;;;;;3.92;3.28;;;16.20;99.90;;;;;;4122713;28;20462;-84
2021/05/31 02:14:09;;;;;;;4.07;3.28;;;16.20;99.90;;;;;;4136125;28;20046;-83
2021/05/31 02:16:22;;;;;;;3.97;2.90;;;16.10;99.90;;;;;;4135076;28;20052;-84
2021/05/31 02:18:40;;;;;;;4.38;3.25;;;16.10;99.90;;;;;;4137893;28;20452;-83
2021/05/31 02:20:44;;;;;;;4.93;3.30;;;16.10;99.90;;;;;;4138848;28;20060;-84
2021/05/31 02:22:49;;;;;;;4.82;3.20;;;16.10;99.90;;;;;;4151500;28;20057;-84
2021/05/31 02:24:52;;;;;;;6.32;3.78;;;16.10;99.90;;;;;;4136002;28;20306;-84
2021/05/31 02:26:53;;;;;;;5.30;3.10;;;16.10;99.90;;;;;;4121763;28;20053;-83
2021/05/31 02:28:54;;;;;;;5.30;3.38;;;16.00;99.90;;;;;;4122981;28;20077;-83
2021/05/31 02:30:55;;;;;;;5.80;3.63;;;16.00;99.90;;;;;;4137010;28;20441;-84
2021/05/31 02:33:04;;;;;;;4.82;2.97;;;16.00;99.90;;;;;;4131544;28;20042;-83
2021/05/31 02:35:10;;;;;;;6.25;4.20;;;16.00;99.90;;;;;;4122408;28;20053;-83
2021/05/31 02:37:13;;;;;;;5.75;3.45;;;15.90;99.90;;;;;;4126790;28;20081;-83
2021/05/31 02:39:15;;;;;;;6.07;3.60;;;15.90;99.90;;;;;;4121878;28;20127;-83
2021/05/31 02:41:16;;;;;;;4.23;3.30;;;15.90;99.90;;;;;;4137465;28;20492;-83
2021/05/31 02:43:17;;;;;;;4.57;3.42;;;15.90;99.90;;;;;;4118496;28;20281;-83
2021/05/31 02:45:19;;;;;;;3.92;3.45;;;15.80;99.90;;;;;;4123350;28;20403;-84
2021/05/31 02:47:20;;;;;;;4.10;3.22;;;15.80;99.90;;;;;;4117834;28;20030;-84
2021/05/31 02:49:20;;;;;;;5.10;3.88;;;15.80;99.90;;;;;;4122760;28;20035;-84
2021/05/31 02:51:21;;;;;;;5.88;3.90;;;15.80;99.90;;;;;;4136945;28;20089;-84
2021/05/31 02:53:24;;;;;;;4.43;3.67;;;15.80;99.90;;;;;;4139472;28;20053;-84
2021/05/31 02:55:27;;;;;;;5.65;3.50;;;15.80;99.90;;;;;;4118587;28;20048;-83
2021/05/31 02:57:27;;;;;;;6.35;3.97;;;15.80;99.90;;;;;;4139932;28;20037;-83
2021/05/31 02:59:28;;;;;;;3.92;3.15;;;15.70;99.90;;;;;;4132881;28;20234;-83
2021/05/31 03:01:29;;;;;;;4.65;4.07;;;15.70;99.90;;;;;;4122716;28;20030;-83
2021/05/31 03:03:29;;;;;;;5.47;4.30;;;15.70;99.90;;;;;;4120147;28;20057;-83
2021/05/31 03:05:31;;;;;;;4.05;3.50;;;15.70;99.90;;;;;;4123139;28;20113;-83
2021/05/31 03:07:32;;;;;;;6.25;3.40;;;15.70;99.90;;;;;;4130213;28;20470;-83
2021/05/31 03:09:33;;;;;;;5.20;3.72;;;15.60;99.90;;;;;;4119236;28;20118;-84
2021/05/31 03:11:33;;;;;;;6.40;3.75;;;15.60;99.90;;;;;;4141016;28;20048;-84
2021/05/31 03:13:34;;;;;;;6.03;3.90;;;15.60;99.90;;;;;;4139727;28;20030;-84
2021/05/31 03:15:34;;;;;;;6.43;4.07;;;15.50;99.90;;;;;;4121686;28;20463;-83
2021/05/31 03:17:36;;;;;;;5.65;4.03;;;15.60;99.90;;;;;;4126833;28;20491;-83
2021/05/31 03:19:36;;;;;;;5.68;4.05;;;15.50;99.90;;;;;;4126659;28;20042;-83
2021/05/31 03:21:37;;;;;;;5.20;3.60;;;15.50;99.90;;;;;;4119819;28;20027;-83
2021/05/31 03:23:38;;;;;;;5.78;4.10;;;15.50;99.90;;;;;;4125103;28;20037;-83
2021/05/31 03:25:39;;;;;;;6.50;4.35;;;15.50;99.90;;;;;;4135672;28;20095;-83
2021/05/31 03:27:40;;;;;;;6.20;4.32;;;15.50;99.90;;;;;;4136697;28;20061;-84
2021/05/31 03:29:41;;;;;;;5.22;3.90;;;15.50;99.90;;;;;;4141101;28;20288;-83
2021/05/31 03:31:42;;;;;;;4.65;3.85;;;15.50;99.90;;;;;;4118746;28;20060;-83
2021/05/31 03:33:42;;;;;;;5.63;3.70;;;15.50;99.90;;;;;;4120657;28;20089;-83
2021/05/31 03:35:43;;;;;;;6.95;4.60;;;15.50;99.90;;;;;;4139794;28;20096;-83
2021/05/31 03:37:44;;;;;;;4.93;3.85;;;15.50;99.90;;;;;;4113283;28;20042;-83
2021/05/31 03:39:45;;;;;;;6.38;4.30;;;15.40;99.90;;;;;;4137509;28;20120;-83
2021/05/31 03:41:46;;;;;;;5.68;4.28;;;15.40;99.90;;;;;;4140240;28;20037;-83
2021/05/31 03:43:47;;;;;;;5.90;3.88;;;15.40;99.90;;;;;;4140662;28;20034;-83
2021/05/31 03:45:47;;;;;;;6.57;4.47;;;15.30;99.90;;;;;;4121746;28;20031;-84
2021/05/31 03:47:48;;;;;;;8.18;4.95;;;15.30;99.90;;;;;;4126774;28;20026;-83
2021/05/31 03:49:49;;;;;;;6.00;4.07;;;15.20;99.90;;;;;;4141451;28;20100;-84
2021/05/31 03:51:50;;;;;;;6.22;4.38;;;15.20;99.90;;;;;;4140746;28;20049;-84
2021/05/31 03:53:50;;;;;;;5.68;4.43;;;15.20;99.90;;;;;;4142001;28;22778;-84
2021/05/31 03:55:51;;;;;;;8.07;4.65;;;15.20;99.90;;;;;;4132571;28;20137;-83
2021/05/31 03:57:51;;;;;;;6.40;4.25;;;15.20;99.90;;;;;;4118605;28;20038;-83
2021/05/31 03:59:53;;;;;;;7.90;4.45;;;15.10;99.90;;;;;;4137872;28;20030;-83
2021/05/31 04:01:53;;;;;;;8.23;5.15;;;15.10;99.90;;;;;;4131821;28;20038;-83
2021/05/31 04:03:54;;;;;;;8.43;4.53;;;15.10;99.90;;;;;;4141589;28;20140;-83
2021/05/31 04:06:09;;;;;;;8.25;5.05;;;15.10;99.90;;;;;;4134088;28;20045;-83
2021/05/31 04:12:51;;;;;;;5.55;4.28;;;15.10;99.90;;;;;;4136305;28;20368;-84
2021/05/31 04:14:51;;;;;;;7.15;5.07;;;15.10;99.90;;;;;;4135278;28;20062;-84
2021/05/31 04:16:55;;;;;;;6.60;4.57;;;15.10;99.90;;;;;;4123574;28;20038;-83
2021/05/31 04:18:56;;;;;;;6.20;4.60;;;15.00;99.90;;;;;;4134679;28;20062;-83
2021/05/31 04:20:57;;;;;;;8.10;5.13;;;15.00;99.90;;;;;;4115451;28;20105;-83
2021/05/31 04:22:58;;;;;;;6.10;4.72;;;15.00;99.90;;;;;;4124236;28;20161;-83
2021/05/31 04:24:59;;;;;;;6.35;4.45;;;15.00;99.90;;;;;;4123659;28;20088;-83
2021/05/31 04:26:59;;;;;;;8.90;4.75;;;15.00;99.90;;;;;;4120233;28;20038;-83
2021/05/31 04:29:05;;;;;;;8.73;4.85;;;14.90;99.90;;;;;;4125319;28;20034;-83
2021/05/31 04:31:05;;;;;;;15.48;5.07;;;14.90;99.90;;;;;;4113694;28;20511;-83
2021/05/31 04:33:06;;;;;;;12.35;5.40;;;14.90;99.90;;;;;;4121128;28;20044;-83
2021/05/31 04:35:07;;;;;;;6.72;4.57;;;14.90;99.90;;;;;;4124694;28;20510;-84
2021/05/31 04:37:08;;;;;;;11.98;5.25;;;14.90;99.90;;;;;;4126355;28;20702;-84
2021/05/31 04:39:09;;;;;;;8.15;4.72;;;14.90;99.90;;;;;;4140323;28;20030;-83
2021/05/31 04:41:10;;;;;;;11.35;4.85;;;14.90;99.90;;;;;;4139788;28;20417;-84
2021/05/31 04:43:10;;;;;;;7.15;4.38;;;14.90;99.90;;;;;;4136778;28;20044;-80
2021/05/31 04:45:11;;;;;;;7.53;4.95;;;14.90;99.90;;;;;;4137186;28;20037;-79
2021/05/31 04:47:12;;;;;;;7.00;4.95;;;15.00;99.90;;;;;;4135667;28;20062;-78
2021/05/31 04:49:12;;;;;;;7.20;4.68;;;14.90;99.90;;;;;;4123715;28;20120;-77
2021/05/31 04:51:13;;;;;;;6.57;5.15;;;14.90;99.90;;;;;;4142703;28;20267;-78
2021/05/31 04:53:15;;;;;;;8.30;5.38;;;15.00;99.90;;;;;;4141454;28;20044;-82
2021/05/31 04:55:16;;;;;;;6.93;5.18;;;15.00;99.90;;;;;;4142784;28;20159;-77
2021/05/31 04:57:17;;;;;;;11.00;5.30;;;15.00;99.90;;;;;;4129872;28;20729;-78
2021/05/31 04:59:23;;;;;;;9.13;5.18;;;15.00;99.90;;;;;;4143101;28;20040;-78
2021/05/31 05:01:23;;;;;;;8.80;5.20;;;15.10;99.90;;;;;;4155230;28;20033;-78
2021/05/31 05:03:32;;;;;;;14.45;6.00;;;15.10;99.90;;;;;;4142539;28;20030;-78
2021/05/31 05:05:34;;;;;;;9.27;5.50;;;15.10;99.90;;;;;;4143879;28;20033;-78
2021/05/31 05:07:35;;;;;;;7.70;5.30;;;15.20;99.90;;;;;;4151095;28;20038;-78
2021/05/31 05:09:36;;;;;;;8.00;5.10;;;15.20;99.90;;;;;;4152148;28;20140;-79
2021/05/31 05:11:38;;;;;;;12.43;6.30;;;15.20;99.90;;;;;;4145968;28;20026;-78
2021/05/31 05:13:39;;;;;;;9.60;5.43;;;15.20;99.90;;;;;;4154224;28;20602;-78
2021/05/31 05:15:39;;;;;;;8.10;5.72;;;15.30;99.90;;;;;;4148878;28;20067;-78
2021/05/31 05:17:42;;;;;;;9.27;5.72;;;15.30;99.90;;;;;;4148561;28;20497;-78
2021/05/31 05:19:43;;;;;;;;;;;15.40;99.90;;;;;;4150244;28;20061;-80
2021/05/31 05:21:43;;;;;;;9.15;5.28;;;15.40;99.90;;;;;;4151208;28;19920;-78
2021/05/31 05:23:46;;;;;;;8.80;5.55;;;15.40;99.90;;;;;;4140238;28;20484;-78
2021/05/31 05:25:53;;;;;;;9.00;6.32;;;15.50;99.90;;;;;;4141926;28;20030;-79
2021/05/31 05:27:54;;;;;;;9.55;5.85;;;15.50;99.90;;;;;;4152672;28;20038;-79
2021/05/31 05:29:55;;;;;;;10.43;6.35;;;15.50;99.90;;;;;;4156395;28;20485;-79
2021/05/31 05:32:03;;;;;;;11.30;6.75;;;15.60;99.90;;;;;;4152302;28;20042;-78
2021/05/31 05:34:05;;;;;;;10.27;6.53;;;15.60;99.90;;;;;;4148128;28;20045;-78
2021/05/31 05:36:20;;;;;;;15.15;7.25;;;15.70;99.90;;;;;;4120746;28;20446;-79
2021/05/31 05:41:15;;;;;;;10.15;6.25;;;15.70;99.90;;;;;;4149043;28;20427;-78
2021/05/31 05:47:41;;;;;;;11.32;6.88;;;15.80;99.90;;;;;;4139098;28;20033;-79
2021/05/31 05:49:23;;;;;;;9.40;6.20;;;15.90;99.90;;;;;;4140700;28;20053;-79
2021/05/31 05:51:24;;;;;;;10.23;6.63;;;16.00;99.90;;;;;;4141343;28;20045;-79
2021/05/31 05:53:25;;;;;;;11.63;6.28;;;16.20;99.90;;;;;;4152867;28;20036;-80
2021/05/31 05:55:25;;;;;;;9.80;6.18;;;16.50;99.90;;;;;;4144939;28;20050;-79
2021/05/31 05:57:26;;;;;;;7.22;5.70;;;16.90;99.90;;;;;;4132542;28;20037;-79
2021/05/31 05:59:26;;;;;;;10.00;6.28;;;17.40;99.90;;;;;;4145878;28;20041;-79
2021/05/31 06:01:28;;;;;;;10.38;6.15;;;17.80;99.90;;;;;;4151379;28;20046;-80
2021/05/31 06:03:28;;;;;;;9.05;5.45;;;18.30;99.90;;;;;;4148912;28;20056;-79
2021/05/31 06:05:29;;;;;;;7.93;5.72;;;18.80;99.90;;;;;;4146656;28;20054;-79
2021/05/31 06:07:29;;;;;;;9.57;5.47;;;19.20;99.90;;;;;;4131020;28;20033;-79
2021/05/31 06:09:30;;;;;;;10.30;5.22;;;19.60;99.90;;;;;;4149569;28;20038;-79
2021/05/31 06:11:30;;;;;;;8.20;5.60;;;20.00;99.90;;;;;;4144629;28;20018;-79
2021/05/31 06:13:31;;;;;;;9.85;4.72;;;20.40;99.90;;;;;;4129287;28;20181;-78
2021/05/31 06:15:32;;;;;;;8.52;5.28;;;20.80;99.90;;;;;;4149546;28;20121;-78
2021/05/31 06:17:33;;;;;;;10.55;5.32;;;21.10;99.90;;;;;;4144277;28;20473;-78
2021/05/31 06:19:35;;;;;;;9.73;5.13;;;21.40;99.90;;;;;;4150755;28;20100;-78
2021/05/31 06:21:36;;;;;;;9.57;5.20;;;21.70;99.90;;;;;;4147651;28;20030;-78
2021/05/31 06:23:38;;;;;;;9.57;5.40;;;21.90;99.90;;;;;;4146308;28;20057;-78
2021/05/31 06:25:40;;;;;;;;;;;22.10;99.90;;;;;;4129173;28;20049;-78
2021/05/31 06:27:42;;;;;;;7.53;4.93;;;22.20;99.90;;;;;;4131216;28;20313;-78
2021/05/31 06:29:43;;;;;;;8.18;4.55;;;22.30;99.90;;;;;;4148182;28;20099;-79
2021/05/31 06:31:44;;;;;;;9.93;5.18;;;22.30;99.90;;;;;;4124600;28;20034;-78
2021/05/31 06:33:45;;;;;;;8.70;4.35;;;22.30;99.30;;;;;;4147297;28;20026;-78
2021/05/31 06:35:47;;;;;;;7.97;4.78;;;22.30;99.90;;;;;;4148390;28;20099;-78
2021/05/31 06:37:51;;;;;;;7.57;5.22;;;22.20;99.70;;;;;;4144026;28;20398;-78
2021/05/31 06:39:51;;;;;;;10.65;5.45;;;22.20;99.60;;;;;;4149837;28;20058;-78
2021/05/31 06:41:53;;;;;;;10.52;5.18;;;22.10;97.90;;;;;;4148315;28;20026;-78
2021/05/31 06:43:53;;;;;;;8.85;4.90;;;22.10;98.70;;;;;;4150427;28;20479;-78
2021/05/31 06:45:55;;;;;;;10.35;5.13;;;22.00;98.80;;;;;;4149013;28;20022;-78
2021/05/31 06:47:58;;;;;;;10.43;5.57;;;21.90;98.10;;;;;;4127930;28;20121;-78
2021/05/31 06:50:00;;;;;;;10.13;5.20;;;21.80;98.40;;;;;;4147956;28;20050;-78
2021/05/31 06:52:00;;;;;;;9.13;5.50;;;21.80;98.90;;;;;;4145701;28;20100;-78
2021/05/31 06:54:02;;;;;;;10.27;5.03;;;21.70;98.50;;;;;;4149329;28;20033;-78
2021/05/31 06:56:03;;;;;;;7.18;4.88;;;21.70;99.40;;;;;;4146049;28;20121;-78
2021/05/31 06:58:04;;;;;;;11.07;5.70;;;21.60;99.80;;;;;;4127314;28;20138;-78
2021/05/31 07:00:08;;;;;;;9.55;5.45;;;21.60;98.50;;;;;;4143689;28;20096;-78
2021/05/31 07:02:08;;;;;;;9.50;5.70;;;21.50;99.80;;;;;;4148401;28;20089;-78
2021/05/31 07:04:13;;;;;;;10.77;5.80;;;21.50;99.40;;;;;;4153777;28;20040;-78
2021/05/31 07:06:13;;;;;;;8.10;5.10;;;21.40;98.20;;;;;;4146298;28;20038;-78
2021/05/31 07:08:17;;;;;;;11.85;5.32;;;21.30;99.10;;;;;;4142258;28;20744;-78
2021/05/31 07:10:22;;;;;;;8.55;5.13;;;21.20;98.60;;;;;;4128806;28;20042;-78
2021/05/31 07:12:24;;;;;;;11.45;5.50;;;21.20;99.10;;;;;;4153134;28;20060;-78
2021/05/31 07:14:33;;;;;;;12.70;5.97;;;21.10;99.90;;;;;;4128438;28;20073;-78
2021/05/31 07:16:34;;;;;;;9.07;5.28;;;21.00;99.90;;;;;;4148893;28;20044;-78
2021/05/31 07:18:34;;;;;;;11.45;5.70;;;20.90;99.90;;;;;;4149664;28;20139;-78
2021/05/31 07:20:35;;;;;;;9.77;5.45;;;20.80;99.90;;;;;;4146993;28;20033;-78
2021/05/31 07:22:36;;;;;;;9.30;5.88;;;20.80;99.90;;;;;;4143017;28;20037;-78
2021/05/31 07:24:37;;;;;;;11.35;6.38;;;20.70;99.90;;;;;;4145232;28;20032;-78
2021/05/31 07:26:39;;;;;;;9.40;5.95;;;20.50;99.90;;;;;;4144781;28;20137;-78
2021/05/31 07:28:46;;;;;;;;;;;20.50;99.90;;;;;;4139327;28;20108;-78
2021/05/31 07:30:48;;;;;;;10.57;5.63;;;20.50;99.90;;;;;;4122263;28;20426;-78
2021/05/31 07:32:49;;;;;;;8.93;5.45;;;20.40;99.90;;;;;;4143183;28;20037;-78
2021/05/31 07:34:49;;;;;;;14.50;6.70;;;20.30;99.90;;;;;;4143660;28;20038;-78
2021/05/31 07:36:50;;;;;;;10.48;6.72;;;20.30;99.90;;;;;;4152395;28;20088;-78
2021/05/31 07:38:51;;;;;;;13.68;7.65;;;20.20;99.90;;;;;;4144951;28;20030;-78
2021/05/31 07:40:53;;;;;;;13.55;6.38;;;20.10;99.90;;;;;;4141775;28;20022;-78
2021/05/31 07:42:54;;;;;;;13.67;7.70;;;20.10;99.90;;;;;;4147263;28;20414;-78
2021/05/31 07:44:56;;;;;;;12.07;6.80;;;20.00;99.90;;;;;;4139284;28;20579;-78
2021/05/31 07:46:57;;;;;;;11.20;6.90;;;20.00;99.90;;;;;;4142644;28;20475;-78
2021/05/31 07:48:59;;;;;;;10.07;5.97;;;20.00;99.90;;;;;;4126797;28;20034;-78
2021/05/31 07:51:20;;;;;;;13.70;7.13;;;20.00;99.90;;;;;;4127991;28;20077;-78
2021/05/31 07:53:30;;;;;;;11.32;6.63;;;20.00;99.90;;;;;;4152868;28;20053;-78
2021/05/31 07:55:30;;;;;;;10.88;5.97;;;20.00;99.90;;;;;;4152806;28;20040;-78
2021/05/31 07:57:33;;;;;;;15.23;7.57;;;20.00;99.90;;;;;;4144502;28;20057;-78
2021/05/31 07:59:35;;;;;;;;;;;20.00;99.90;;;;;;4151053;28;20117;-78
2021/05/31 08:01:35;;;;;;;10.68;6.57;;;19.90;99.90;;;;;;4148242;28;20309;-78
2021/05/31 08:03:37;;;;;;;16.80;7.65;;;19.90;99.90;;;;;;4146342;28;20030;-79
2021/05/31 08:05:38;;;;;;;12.60;6.60;;;19.80;99.90;;;;;;4151763;28;20033;-78
2021/05/31 08:07:39;;;;;;;14.70;7.07;;;19.80;99.90;;;;;;4142985;28;20060;-78
2021/05/31 08:09:40;;;;;;;10.02;5.70;;;19.80;99.90;;;;;;4152293;28;20076;-78
2021/05/31 08:11:40;;;;;;;9.48;5.68;;;19.90;99.90;;;;;;4136108;28;20040;-78
2021/05/31 08:13:42;;;;;;;9.65;5.82;;;19.90;99.90;;;;;;4135687;28;20038;-78
2021/05/31 08:15:43;;;;;;;11.23;5.93;;;20.00;99.90;;;;;;4131531;28;20096;-79
2021/05/31 08:17:43;;;;;;;7.93;4.85;;;20.00;99.90;;;;;;4144993;28;20117;-78
2021/05/31 08:19:44;;;;;;;10.10;5.47;;;20.00;99.90;;;;;;4144425;28;20022;-79
2021/05/31 08:21:47;;;;;;;9.15;5.03;;;20.10;99.90;;;;;;4150224;28;20037;-78
2021/05/31 08:23:48;;;;;;;7.45;5.05;;;20.10;99.90;;;;;;4141999;28;20120;-78
2021/05/31 08:25:56;;;;;;;15.25;5.50;;;20.20;99.90;;;;;;4140327;28;20038;-78
2021/05/31 08:27:57;;;;;;;12.05;5.97;;;20.30;99.90;;;;;;4147521;28;20030;-79
2021/05/31 08:29:57;;;;;;;10.80;5.15;;;20.30;99.90;;;;;;4148779;28;20033;-79
2021/05/31 08:31:58;;;;;;;10.73;5.47;;;20.40;99.90;;;;;;4127596;28;20038;-79
2021/05/31 08:33:59;;;;;;;12.85;6.43;;;20.40;99.90;;;;;;4149826;28;20525;-79
2021/05/31 08:35:59;;;;;;;12.43;6.43;;;20.40;99.90;;;;;;4133453;28;20121;-79
2021/05/31 08:38:00;;;;;;;13.02;6.05;;;20.50;99.90;;;;;;4139190;28;20525;-79
2021/05/31 08:40:01;;;;;;;12.25;5.80;;;20.50;99.90;;;;;;4147703;28;20052;-79
2021/05/31 08:42:02;;;;;;;10.70;5.30;;;20.60;99.90;;;;;;4140724;28;20672;-79
2021/05/31 08:44:04;;;;;;;11.98;5.43;;;20.70;99.90;;;;;;4142360;28;20046;-79
2021/05/31 08:46:04;;;;;;;10.03;5.77;;;20.70;99.90;;;;;;4144684;28;20046;-79
2021/05/31 08:48:08;;;;;;;14.80;5.97;;;20.70;99.90;;;;;;4146120;28;20040;-78
2021/05/31 08:50:10;;;;;;;11.30;5.38;;;20.80;99.90;;;;;;4143024;28;20065;-79
2021/05/31 08:52:11;;;;;;;11.02;5.22;;;20.80;99.90;;;;;;4143434;28;20030;-79
2021/05/31 08:54:11;;;;;;;10.13;5.00;;;20.90;99.90;;;;;;4143986;28;20032;-79
2021/05/31 08:56:12;;;;;;;11.25;4.88;;;21.00;99.90;;;;;;4150448;28;20049;-79
2021/05/31 08:58:13;;;;;;;7.43;4.32;;;21.10;99.90;;;;;;4149672;28;20115;-79
2021/05/31 09:00:24;;;;;;;8.43;5.20;;;21.20;99.90;;;;;;4148266;28;20164;-79
2021/05/31 09:02:30;;;;;;;11.65;5.18;;;21.30;99.90;;;;;;4140618;28;20049;-79
2021/05/31 09:04:31;;;;;;;9.20;5.07;;;21.40;99.90;;;;;;4128182;28;20037;-79
2021/05/31 09:06:34;;;;;;;9.70;4.43;;;21.40;99.90;;;;;;4144896;28;20557;-79
2021/05/31 09:08:34;;;;;;;7.20;4.57;;;21.50;99.90;;;;;;4139580;28;20076;-79
2021/05/31 09:10:37;;;;;;;8.40;4.90;;;21.60;99.90;;;;;;4144300;28;20496;-79
2021/05/31 09:12:38;;;;;;;9.60;5.68;;;21.80;99.90;;;;;;4146695;28;20055;-79
2021/05/31 09:14:42;;;;;;;8.93;4.97;;;21.90;99.90;;;;;;4142499;28;20622;-79
2021/05/31 09:16:42;;;;;;;10.07;5.18;;;22.00;99.90;;;;;;4144265;28;20038;-79
2021/05/31 09:18:53;;;;;;;7.07;4.32;;;22.20;99.90;;;;;;4150667;28;20092;-79
2021/05/31 09:20:54;;;;;;;12.00;5.32;;;22.30;99.90;;;;;;4149503;28;20026;-79
2021/05/31 09:22:55;;;;;;;11.35;5.10;;;22.40;99.90;;;;;;4145448;28;20038;-79
2021/05/31 09:25:02;;;;;;;11.07;5.70;;;22.50;99.90;;;;;;4149234;28;20140;-78
2021/05/31 09:27:06;;;;;;;14.48;6.07;;;22.50;98.70;;;;;;4127851;28;20037;-79
2021/05/31 09:29:08;;;;;;;7.10;4.60;;;22.50;98.40;;;;;;4127428;28;20042;-78
2021/05/31 09:31:16;;;;;;;13.13;4.72;;;22.50;99.90;;;;;;4145936;28;20064;-78
2021/05/31 09:33:17;;;;;;;7.05;4.53;;;22.60;99.90;;;;;;4147997;28;20438;-78
2021/05/31 09:35:22;;;;;;;9.98;4.30;;;22.60;99.90;;;;;;4146596;28;20049;-78
2021/05/31 09:37:23;;;;;;;7.25;4.28;;;22.80;99.90;;;;;;4150961;28;20041;-78
2021/05/31 09:39:31;;;;;;;10.10;5.00;;;22.90;99.90;;;;;;4145275;28;20025;-78
2021/05/31 09:41:34;;;;;;;7.82;4.40;;;22.90;98.70;;;;;;4129584;28;20104;-78
2021/05/31 09:43:37;;;;;;;7.00;4.53;;;23.10;98.60;;;;;;4145408;28;20308;-78
2021/05/31 09:45:39;;;;;;;8.98;5.47;;;23.10;97.50;;;;;;4144046;28;20041;-79
2021/05/31 09:47:41;;;;;;;11.43;6.47;;;23.20;97.80;;;;;;4145353;28;20160;-79
2021/05/31 09:49:42;;;;;;;6.57;4.32;;;23.10;95.60;;;;;;4147864;28;20433;-78
2021/05/31 09:51:58;;;;;;;6.80;4.45;;;23.10;96.70;;;;;;4151386;28;20034;-79
2021/05/31 09:53:59;;;;;;;6.97;4.40;;;23.20;95.30;;;;;;4148883;28;20049;-78
2021/05/31 09:56:00;;;;;;;7.15;4.30;;;23.20;95.90;;;;;;4143715;28;20050;-78
2021/05/31 09:58:00;;;;;;;6.40;4.03;;;23.20;96.40;;;;;;4150646;28;20088;-78
2021/05/31 10:00:07;;;;;;;5.55;3.60;;;23.40;96.00;;;;;;4149272;28;20034;-78
2021/05/31 10:02:09;;;;;;;6.95;3.72;;;23.40;94.60;;;;;;4147966;28;20030;-78
2021/05/31 10:04:40;;;;;;;8.63;4.07;;;23.50;94.20;;;;;;4148299;28;20036;-78
2021/05/31 10:06:51;;;;;;;6.32;4.32;;;23.50;91.30;;;;;;4148375;28;20509;-78
2021/05/31 10:08:51;;;;;;;8.38;5.20;;;23.40;93.40;;;;;;4151283;28;20398;-78
2021/05/31 10:10:52;;;;;;;6.18;4.38;;;23.30;90.80;;;;;;4152741;28;20078;-78
2021/05/31 10:12:54;;;;;;;7.43;4.35;;;23.30;91.60;;;;;;4131023;28;20029;-78
2021/05/31 10:14:55;;;;;;;7.70;3.95;;;23.40;92.40;;;;;;4145475;28;20392;-79
2021/05/31 10:16:56;;;;;;;8.27;4.07;;;23.40;92.30;;;;;;4152525;28;20038;-78
2021/05/31 10:18:58;;;;;;;11.10;4.45;;;23.40;92.00;;;;;;4151357;28;20025;-78
2021/05/31 10:20:58;;;;;;;8.65;3.95;;;23.20;91.10;;;;;;4149730;28;20567;-78
2021/05/31 10:22:59;;;;;;;6.45;3.38;;;23.30;92.20;;;;;;4146778;28;20037;-78
2021/05/31 10:25:01;;;;;;;5.05;2.90;;;23.30;91.00;;;;;;4150290;28;20454;-79
2021/05/31 10:27:03;;;;;;;5.35;2.83;;;23.40;91.90;;;;;;4145329;28;20386;-78
2021/05/31 10:29:05;;;;;;;8.73;3.10;;;23.50;94.10;;;;;;4148996;28;20049;-78
2021/05/31 10:31:08;;;;;;;7.13;3.45;;;23.50;91.60;;;;;;4150907;28;20477;-78
2021/05/31 10:33:13;;;;;;;4.45;2.53;;;23.50;90.40;;;;;;4124500;28;20037;-78
2021/05/31 10:35:22;;;;;;;8.07;2.50;;;23.50;87.80;;;;;;4148406;28;20124;-79
2021/05/31 10:37:30;;;;;;;5.22;2.60;;;23.50;90.20;;;;;;4149382;28;20088;-79
2021/05/31 10:39:31;;;;;;;4.43;2.65;;;23.60;85.30;;;;;;4146462;28;20026;-79
2021/05/31 10:41:32;;;;;;;3.28;2.55;;;23.70;83.60;;;;;;4151969;28;20029;-78
2021/05/31 10:43:42;;;;;;;6.80;2.90;;;23.80;86.10;;;;;;4149784;28;20454;-79
2021/05/31 10:45:43;;;;;;;6.15;2.85;;;23.80;81.20;;;;;;4149898;28;20042;-79
2021/05/31 10:47:58;;;;;;;3.42;2.42;;;23.80;81.70;;;;;;4149985;28;20042;-78